Time;durP1;ratioP1;P1;durP2;ratioP2;P2;SDS_P1;SDS_P2;PMS_P1;PMS_P2;Temp;Humidity;BMP_temperature;BMP_pressure;BME280_temperature;BME280_humidity;BME280_pressure;Samples;Min_cycle;Max_cycle;Signal;HPM_P1;HPM_P2
2024/01/04 00:02:23;;;;;;;1.15;0.20;;;;;;;7.97;100.00;97284.63;5054703;28;20089;-79
2024/01/04 00:04:49;;;;;;;1.42;0.20;;;;;;;7.81;100.00;97253.72;5052226;28;20111;-79
2024/01/04 00:07:14;;;;;;;5.50;0.40;;;;;;;7.72;100.00;97232.69;5059942;28;20029;-82
2024/01/04 00:09:39;;;;;;;1.10;0.50;;;;;;;7.96;100.00;97272.19;5076117;28;20043;-82
2024/01/04 00:12:05;;;;;;;0.70;0.30;;;;;;;7.96;100.00;97274.88;5064786;28;20029;-79
2024/01/04 00:14:30;;;;;;;0.80;0.30;;;;;;;7.84;100.00;97252.44;5070133;28;20021;-82
2024/01/04 00:16:55;;;;;;;2.10;0.10;;;;;;;7.97;100.00;97275.72;5073641;28;20029;-82
2024/01/04 00:19:20;;;;;;;1.38;0.43;;;;;;;8.11;100.00;97283.41;5062349;28;20021;-80
2024/01/04 00:21:46;;;;;;;1.73;0.25;;;;;;;7.96;100.00;97253.34;5057760;28;20449;-79
2024/01/04 00:24:11;;;;;;;1.17;0.20;;;;;;;8.17;100.00;97291.63;5046253;28;20039;-79
2024/01/04 00:26:36;;;;;;;2.33;0.50;;;;;;;8.05;100.00;97265.47;5050607;28;20066;-79
2024/01/04 00:29:02;;;;;;;1.33;0.30;;;;;;;8.08;100.00;97264.19;5049220;28;20035;-81
2024/01/04 00:31:27;;;;;;;2.13;0.20;;;;;;;8.18;100.00;97282.53;5064083;28;20029;-80
2024/01/04 00:33:52;;;;;;;2.10;0.20;;;;;;;8.07;100.00;97270.63;5057367;28;20051;-81
2024/01/04 00:36:18;;;;;;;1.65;0.22;;;;;;;8.05;100.00;97283.50;5055241;28;20471;-80
2024/01/04 00:38:44;;;;;;;3.05;0.35;;;;;;;7.90;100.00;97265.00;5063389;28;20390;-82
2024/01/04 00:41:09;;;;;;;1.75;0.32;;;;;;;7.84;100.00;97239.00;5079204;28;20032;-79
2024/01/04 00:43:36;;;;;;;0.82;0.13;;;;;;;8.11;100.00;97298.75;5063887;28;20542;-80
2024/01/04 00:46:02;;;;;;;0.38;0.20;;;;;;;7.88;100.00;97265.22;5052620;28;20086;-80
2024/01/04 00:48:27;;;;;;;1.00;0.10;;;;;;;7.98;100.00;97286.25;5048252;28;20036;-82
2024/01/04 00:50:52;;;;;;;0.95;0.10;;;;;;;7.88;100.00;97259.03;5051368;28;20425;-82
2024/01/04 00:53:17;;;;;;;2.33;0.28;;;;;;;7.94;100.00;97278.84;5046367;28;20112;-81
2024/01/04 00:55:43;;;;;;;0.40;0.10;;;;;;;7.89;100.00;97288.44;5050328;28;20075;-81
2024/01/04 00:58:08;;;;;;;1.33;0.30;;;;;;;7.78;100.00;97278.41;5048250;28;20020;-82
2024/01/04 01:00:33;;;;;;;1.65;0.52;;;;;;;7.65;100.00;97284.75;5046184;28;20496;-80
2024/01/04 01:02:59;;;;;;;0.60;0.30;;;;;;;7.58;100.00;97304.69;5055431;28;20024;-80
2024/01/04 01:05:24;;;;;;;2.38;0.35;;;;;;;7.60;100.00;97299.91;5042881;28;20098;-81
2024/01/04 01:07:50;;;;;;;0.65;0.20;;;;;;;7.61;100.00;97309.63;5047508;28;20044;-81
2024/01/04 01:10:15;;;;;;;0.85;0.25;;;;;;;7.44;100.00;97304.81;5050981;28;20025;-80
2024/01/04 01:12:40;;;;;;;1.45;0.35;;;;;;;7.61;100.00;97331.16;5053441;28;20028;-80
2024/01/04 01:15:06;;;;;;;2.83;0.30;;;;;;;7.36;100.00;97294.31;5049036;28;20027;-80
2024/01/04 01:17:31;;;;;;;2.33;0.28;;;;;;;7.61;100.00;97328.47;5054006;28;20490;-79
2024/01/04 01:19:57;;;;;;;0.30;0.10;;;;;;;7.60;100.00;97321.44;5059837;28;20028;-79
2024/01/04 01:22:24;;;;;;;0.75;0.13;;;;;;;7.56;100.00;97314.84;5054614;28;20024;-81
2024/01/04 01:24:49;;;;;;;2.85;0.13;;;;;;;7.64;100.00;97323.44;5055101;28;20024;-80
2024/01/04 01:27:14;;;;;;;1.63;0.22;;;;;;;7.64;100.00;97307.31;5045332;28;20032;-82
2024/01/04 01:29:40;;;;;;;2.88;0.40;;;;;;;7.53;100.00;97278.44;5047483;28;20028;-80
2024/01/04 01:32:05;;;;;;;1.23;0.22;;;;;;;7.66;100.00;97309.78;5052588;28;20120;-81
2024/01/04 01:34:31;;;;;;;3.03;0.30;;;;;;;7.64;100.00;97309.19;5042708;28;20485;-81
2024/01/04 01:36:58;;;;;;;1.95;0.43;;;;;;;7.68;100.00;97313.91;5049607;28;20024;-80
2024/01/04 01:39:24;;;;;;;2.53;0.65;;;;;;;7.69;100.00;97323.63;5045155;28;20136;-81
2024/01/04 01:41:51;;;;;;;1.33;0.32;;;;;;;7.65;100.00;97322.44;5065392;28;20067;-81
2024/01/04 01:44:17;;;;;;;0.80;0.20;;;;;;;7.33;100.00;97281.28;5047513;28;20025;-81
2024/01/04 01:46:42;;;;;;;0.55;0.17;;;;;;;7.47;100.00;97306.22;5048182;28;20458;-81
2024/01/04 01:49:08;;;;;;;3.03;0.25;;;;;;;7.56;100.00;97312.97;5060833;28;20087;-81
2024/01/04 01:51:34;;;;;;;0.63;0.20;;;;;;;7.58;100.00;97313.59;5048588;28;20060;-80
2024/01/04 01:53:59;;;;;;;1.45;0.20;;;;;;;7.57;100.00;97308.41;5047309;28;20032;-80
2024/01/04 01:56:24;;;;;;;0.22;0.15;;;;;;;7.57;100.00;97311.94;5049206;28;20025;-80
2024/01/04 01:58:51;;;;;;;1.08;0.10;;;;;;;7.69;100.00;97342.47;5048922;28;20127;-80
2024/01/04 02:01:17;;;;;;;1.02;0.20;;;;;;;7.50;100.00;97313.03;5045238;28;20044;-80
2024/01/04 02:03:43;;;;;;;1.33;0.20;;;;;;;7.72;100.00;97351.16;5044100;28;20116;-80
2024/01/04 02:06:08;;;;;;;0.65;0.10;;;;;;;7.66;100.00;97352.84;5037740;28;20129;-82
2024/01/04 02:08:33;;;;;;;0.32;0.10;;;;;;;7.64;100.00;97358.44;5059843;28;20114;-80
2024/01/04 02:10:58;;;;;;;1.15;0.30;;;;;;;7.45;100.00;97336.03;5047667;28;20035;-80
2024/01/04 02:13:24;;;;;;;2.38;0.20;;;;;;;7.63;100.00;97370.25;5040837;28;20405;-80
2024/01/04 02:15:49;;;;;;;1.52;0.20;;;;;;;7.62;100.00;97365.94;5046670;28;20060;-82
2024/01/04 02:18:15;;;;;;;0.55;0.10;;;;;;;7.74;100.00;97392.13;5040549;28;20017;-80
2024/01/04 02:20:40;;;;;;;0.40;0.10;;;;;;;7.54;100.00;97352.72;5043742;28;20549;-79
2024/01/04 02:23:05;;;;;;;1.38;0.20;;;;;;;7.56;100.00;97363.28;5041492;28;20024;-80
2024/01/04 02:25:31;;;;;;;0.80;0.20;;;;;;;7.57;100.00;97363.09;5042255;28;20116;-79
2024/01/04 02:27:56;;;;;;;0.85;0.10;;;;;;;7.50;100.00;97351.53;5037437;28;20374;-79
2024/01/04 02:30:21;;;;;;;2.10;0.22;;;;;;;7.66;100.00;97379.78;5051689;28;20720;-79
2024/01/04 02:32:47;;;;;;;3.35;0.25;;;;;;;7.71;100.00;97353.03;5042533;28;20029;-81
2024/01/04 02:35:12;;;;;;;1.00;0.10;;;;;;;7.75;100.00;97362.28;5061852;28;20029;-79
2024/01/04 02:37:37;;;;;;;0.73;0.13;;;;;;;8.05;100.00;97404.69;5055824;28;20020;-81
2024/01/04 02:40:03;;;;;;;1.45;0.20;;;;;;;8.03;100.00;97377.97;5052112;28;20035;-80
2024/01/04 02:42:30;;;;;;;1.98;0.40;;;;;;;8.08;100.00;97382.72;5060457;28;20025;-80
2024/01/04 02:44:55;;;;;;;1.63;0.20;;;;;;;8.07;100.00;97384.59;5051717;28;20025;-80
2024/01/04 02:47:21;;;;;;;1.13;0.10;;;;;;;8.15;100.00;97371.84;5042139;28;20028;-79
2024/01/04 02:49:46;;;;;;;3.17;0.30;;;;;;;8.33;100.00;97402.34;5051488;28;20039;-81
2024/01/04 02:52:11;;;;;;;0.75;0.22;;;;;;;8.20;100.00;97397.09;5057787;28;20032;-80
2024/01/04 02:54:37;;;;;;;1.95;0.10;;;;;;;8.29;100.00;97401.13;5047554;28;20021;-79
2024/01/04 02:57:03;;;;;;;2.92;0.47;;;;;;;8.27;100.00;97399.72;5046785;28;20660;-80
2024/01/04 02:59:28;;;;;;;3.13;0.30;;;;;;;8.18;100.00;97376.81;5041071;28;20070;-79
2024/01/04 03:01:53;;;;;;;0.82;0.10;;;;;;;8.28;100.00;97393.28;5050847;28;20032;-80
2024/01/04 03:04:19;;;;;;;1.45;0.20;;;;;;;8.31;100.00;97396.34;5039822;28;20488;-80
2024/01/04 03:06:44;;;;;;;4.95;0.30;;;;;;;8.18;100.00;97371.44;5044479;28;20025;-80
2024/01/04 03:09:09;;;;;;;0.47;0.10;;;;;;;8.12;100.00;97365.88;5044995;28;20051;-79
2024/01/04 03:11:35;;;;;;;1.67;0.20;;;;;;;8.19;100.00;97391.94;5059436;28;20027;-80
2024/01/04 03:14:00;;;;;;;1.35;0.20;;;;;;;8.18;100.00;97382.19;5042474;28;20029;-79
2024/01/04 03:16:25;;;;;;;2.22;0.30;;;;;;;8.20;100.00;97388.16;5046121;28;20040;-78
2024/01/04 03:18:50;;;;;;;0.70;0.13;;;;;;;8.11;100.00;97366.09;5047156;28;20029;-79
2024/01/04 03:21:17;;;;;;;1.38;0.28;;;;;;;8.33;100.00;97394.25;5059838;28;20028;-79
2024/01/04 03:23:42;;;;;;;2.90;0.20;;;;;;;8.25;100.00;97382.94;5048455;28;20016;-78
2024/01/04 03:26:07;;;;;;;3.28;0.20;;;;;;;8.05;100.00;97351.66;5060604;28;20028;-80
2024/01/04 03:28:32;;;;;;;3.38;0.47;;;;;;;8.24;100.00;97394.78;5070679;28;20139;-79
2024/01/04 03:30:58;;;;;;;6.63;1.30;;;;;;;8.26;100.00;97381.91;5048869;28;20025;-79
2024/01/04 03:33:23;;;;;;;2.42;0.38;;;;;;;8.32;100.00;97405.25;5080513;28;20024;-81
2024/01/04 03:35:48;;;;;;;3.20;0.30;;;;;;;8.28;100.00;97393.28;5069531;28;20151;-80
2024/01/04 03:38:14;;;;;;;4.90;0.60;;;;;;;8.24;100.00;97371.34;5067844;28;20374;-81
2024/01/04 03:40:39;;;;;;;2.10;0.30;;;;;;;8.37;100.00;97399.22;5080321;28;20088;-80
2024/01/04 03:43:04;;;;;;;2.70;0.77;;;;;;;8.21;100.00;97387.16;5052357;28;20470;-79
2024/01/04 03:45:32;;;;;;;1.65;0.20;;;;;;;8.22;100.00;97402.25;5065385;28;20029;-79
2024/01/04 03:47:58;;;;;;;3.50;0.30;;;;;;;8.09;100.00;97408.59;5075528;23;20080;-78
2024/01/04 03:50:23;;;;;;;3.13;0.15;;;;;;;8.05;100.00;97408.22;5046250;28;20022;-78
2024/01/04 03:52:48;;;;;;;2.20;0.30;;;;;;;8.04;100.00;97429.97;5045771;28;20079;-77
2024/01/04 03:55:15;;;;;;;4.22;0.50;;;;;;;7.92;100.00;97419.09;5047619;28;20138;-78
2024/01/04 03:57:42;;;;;;;1.73;0.28;;;;;;;7.96;100.00;97433.75;5054054;28;20064;-77
2024/01/04 04:00:08;;;;;;;3.83;0.45;;;;;;;7.93;100.00;97434.22;5032718;28;20038;-79
2024/01/04 04:02:33;;;;;;;2.03;0.32;;;;;;;8.00;100.00;97443.06;5033103;28;20021;-81
2024/01/04 04:04:59;;;;;;;4.38;0.32;;;;;;;7.98;100.00;97437.06;5032291;28;20016;-81
2024/01/04 04:07:24;;;;;;;2.88;0.28;;;;;;;8.07;100.00;97443.84;5037931;28;20389;-80
2024/01/04 04:09:49;;;;;;;2.20;0.20;;;;;;;8.09;100.00;97440.91;5034145;28;20106;-81
2024/01/04 04:12:14;;;;;;;1.55;0.30;;;;;;;8.05;100.00;97404.69;5039670;28;20405;-81
2024/01/04 04:17:55;;;;;;;2.55;0.40;;;;;;;8.35;100.00;97458.69;5072966;28;20052;-62
2024/01/04 04:20:20;;;;;;;3.63;0.45;;;;;;;8.38;100.00;97463.63;5069786;28;20427;-62
2024/01/04 04:22:46;;;;;;;4.22;0.45;;;;;;;8.39;100.00;97465.34;5075179;28;20024;-62
2024/01/04 04:25:11;;;;;;;4.38;0.55;;;;;;;8.39;100.00;97457.25;5071883;28;20028;-62
2024/01/04 04:27:37;;;;;;;5.80;0.73;;;;;;;8.38;100.00;97465.53;5073027;28;20465;-62
2024/01/04 04:40:08;;;;;;;3.50;0.40;;;;;;;8.24;100.00;97462.13;5061061;22;20099;-81
2024/01/04 04:42:34;;;;;;;3.65;0.50;;;;;;;8.19;100.00;97475.44;5036988;28;20037;-81
2024/01/04 04:45:00;;;;;;;2.00;0.35;;;;;;;7.87;100.00;97441.31;5021240;28;20030;-81
2024/01/04 04:47:25;;;;;;;3.88;0.40;;;;;;;8.17;100.00;97475.66;5027174;28;20040;-80
2024/01/04 04:52:41;;;;;;;2.38;0.40;;;;;;;8.16;100.00;97497.44;5075680;28;20098;-63
2024/01/04 04:55:06;;;;;;;3.33;0.50;;;;;;;8.22;100.00;97485.78;5072549;28;20391;-63
2024/01/04 04:57:32;;;;;;;2.75;0.40;;;;;;;8.21;100.00;97501.13;5072638;28;20423;-63
2024/01/04 04:59:57;;;;;;;6.70;0.45;;;;;;;8.20;100.00;97498.63;5071578;28;20017;-63
2024/01/04 05:02:23;;;;;;;1.10;0.22;;;;;;;8.13;100.00;97504.91;5073207;28;20557;-63
2024/01/04 05:04:48;;;;;;;2.83;0.50;;;;;;;8.19;100.00;97515.84;5068545;28;20399;-63
2024/01/04 05:07:13;;;;;;;4.88;0.70;;;;;;;8.21;100.00;97509.19;5081057;28;20032;-63
2024/01/04 05:09:39;;;;;;;4.22;0.60;;;;;;;8.15;100.00;97523.56;5072400;28;20038;-63
2024/01/04 05:12:04;;;;;;;4.22;0.90;;;;;;;8.11;100.00;97528.53;5067277;28;20028;-63
2024/01/04 05:14:29;;;;;;;3.17;0.20;;;;;;;8.09;100.00;97535.19;5076892;28;20033;-63
2024/01/04 05:16:55;;;;;;;4.75;0.82;;;;;;;8.09;100.00;97525.22;5079392;28;20419;-64
2024/01/04 05:19:45;;;;;;;3.42;0.60;;;;;;;7.99;100.00;97540.22;5082980;28;20433;-64
2024/01/04 05:22:10;;;;;;;2.33;0.30;;;;;;;7.87;100.00;97538.25;5077267;28;20062;-62
2024/01/04 05:24:37;;;;;;;2.33;0.32;;;;;;;7.88;100.00;97547.97;5076973;28;20471;-62
2024/01/04 05:27:03;;;;;;;4.07;0.55;;;;;;;7.82;100.00;97539.94;5164788;22;20052;-79
2024/01/04 05:29:28;;;;;;;4.15;0.68;;;;;;;7.81;100.00;97541.00;5076587;28;20111;-81
2024/01/04 05:31:53;;;;;;;5.47;0.40;;;;;;;7.76;100.00;97551.59;5072100;28;20087;-81
2024/01/04 05:34:19;;;;;;;3.40;0.93;;;;;;;7.76;100.00;97548.91;5075987;28;20331;-81
2024/01/04 05:36:44;;;;;;;5.35;0.40;;;;;;;7.75;100.00;97561.50;5076290;28;20219;-80
2024/01/04 05:41:43;;;;;;;5.95;0.40;;;;;;;7.77;100.00;97593.59;5060352;28;20082;-62
2024/01/04 05:44:08;;;;;;;3.08;0.80;;;;;;;7.65;100.00;97586.22;5069978;23;20041;-80
2024/01/04 05:46:33;;;;;;;2.33;0.30;;;;;;;7.71;100.00;97597.16;5049627;28;20029;-82
2024/01/04 05:49:00;;;;;;;2.03;0.50;;;;;;;7.58;100.00;97593.50;5071560;28;20093;-81
2024/01/04 05:51:26;;;;;;;2.90;0.38;;;;;;;7.58;100.00;97609.63;5064237;28;20013;-81
2024/01/04 05:53:52;;;;;;;3.22;0.50;;;;;;;7.57;100.00;97617.91;5077826;28;20027;-82
2024/01/04 06:05:04;;;;;;;3.22;0.40;;;;;;;7.44;100.00;97634.94;5198902;22;20049;-61
2024/01/04 06:10:05;;;;;;;9.07;0.52;;;;;;;7.51;100.00;97630.38;5204881;22;20044;-77
2024/01/04 06:12:46;;;;;;;2.40;0.43;;;;;;;7.14;100.00;97584.34;5093547;28;20036;-79
2024/01/04 06:19:04;;;;;;;;;;;;;;;;;;;;;
2024/01/04 06:21:30;;;;;;;3.25;0.50;;;;;;;7.66;100.00;97593.25;5087185;28;20011;-80
2024/01/04 06:23:56;;;;;;;1.15;0.30;;;;;;;7.79;100.00;97623.84;5094776;28;20507;-80
2024/01/04 06:26:23;;;;;;;2.75;0.40;;;;;;;7.63;100.00;97591.00;5097560;28;20110;-81
2024/01/04 06:28:49;;;;;;;3.97;0.47;;;;;;;7.95;100.00;97641.38;5078375;28;20028;-81
2024/01/04 06:31:14;;;;;;;3.83;0.93;;;;;;;7.93;100.00;97644.28;5075896;22;20059;-61
2024/01/04 06:33:40;;;;;;;6.45;1.13;;;;;;;7.81;100.00;97657.59;5073229;28;20032;-61
2024/01/04 06:36:05;;;;;;;2.35;0.45;;;;;;;7.79;100.00;97653.47;5071918;28;20021;-61
2024/01/04 06:38:31;;;;;;;4.88;0.43;;;;;;;7.75;100.00;97663.00;5070306;28;20028;-63
2024/01/04 06:40:58;;;;;;;8.30;0.60;;;;;;;7.75;100.00;97658.44;5056972;28;20025;-62
2024/01/04 06:43:23;;;;;;;5.15;0.77;;;;;;;7.79;100.00;97665.06;5070005;28;20460;-62
2024/01/04 06:45:49;;;;;;;6.47;0.82;;;;;;;7.78;100.00;97674.19;5072368;28;20032;-62
2024/01/04 06:48:14;;;;;;;2.60;0.38;;;;;;;7.71;100.00;97681.44;5063783;28;20031;-60
2024/01/04 06:50:40;;;;;;;4.15;0.40;;;;;;;7.79;100.00;97680.38;5073896;28;20035;-61
2024/01/04 06:53:07;;;;;;;5.78;0.65;;;;;;;7.66;100.00;97679.38;5077700;28;20545;-67
2024/01/04 06:55:32;;;;;;;5.00;0.70;;;;;;;7.63;100.00;97689.75;5080106;28;20079;-62
2024/01/04 06:57:57;;;;;;;3.90;0.50;;;;;;;7.60;100.00;97698.28;5076844;28;20105;-61
2024/01/04 07:00:24;;;;;;;2.67;0.30;;;;;;;7.50;100.00;97698.69;5074431;28;20036;-62
2024/01/04 07:02:49;;;;;;;2.83;0.30;;;;;;;7.51;100.00;97703.03;5076703;28;20447;-61
2024/01/04 07:05:14;;;;;;;4.03;0.22;;;;;;;7.54;100.00;97716.06;5073348;28;20028;-62
2024/01/04 07:07:40;;;;;;;1.52;0.50;;;;;;;7.56;100.00;97708.59;5077212;28;20028;-61
2024/01/04 07:10:05;;;;;;;3.13;0.50;;;;;;;7.62;100.00;97713.16;5072213;28;20112;-61
2024/01/04 07:12:31;;;;;;;2.83;0.30;;;;;;;7.61;100.00;97722.25;5065461;28;20115;-61
2024/01/04 07:14:57;;;;;;;1.40;0.40;;;;;;;7.62;100.00;97723.94;5053855;28;20078;-61
2024/01/04 07:17:23;;;;;;;3.85;1.02;;;;;;;7.60;100.00;97725.19;5070688;28;20020;-61
2024/01/04 07:19:48;;;;;;;6.90;0.70;;;;;;;7.62;100.00;97723.94;5050490;28;20047;-61
2024/01/04 07:22:15;;;;;;;3.15;0.60;;;;;;;7.72;100.00;97738.81;5072895;28;20481;-61
2024/01/04 07:24:41;;;;;;;3.95;0.70;;;;;;;7.74;100.00;97731.34;5074314;28;20414;-61
2024/01/04 07:27:08;;;;;;;4.88;0.85;;;;;;;7.83;100.00;97740.84;5075589;28;20033;-62
2024/01/04 07:29:33;;;;;;;3.22;0.52;;;;;;;7.86;100.00;97745.81;5072751;28;20111;-61
2024/01/04 07:31:59;;;;;;;1.75;0.30;;;;;;;7.92;100.00;97744.97;5075928;28;20108;-61
2024/01/04 07:34:24;;;;;;;3.35;0.60;;;;;;;7.97;100.00;97755.09;5074585;28;20550;-61
2024/01/04 07:36:51;;;;;;;6.93;0.55;;;;;;;7.93;100.00;97749.31;5072807;28;20012;-63
2024/01/04 07:39:18;;;;;;;5.10;0.45;;;;;;;7.96;100.00;97748.06;5147133;22;20392;-63
2024/01/04 07:41:43;;;;;;;2.15;0.40;;;;;;;8.02;100.00;97739.13;5085204;22;20068;-79
2024/01/04 07:44:10;;;;;;;4.70;0.40;;;;;;;8.02;100.00;97777.66;5057215;28;20039;-76
2024/01/04 07:46:36;;;;;;;5.20;0.60;;;;;;;8.04;100.00;97764.81;5064287;28;20028;-81
2024/01/04 07:49:04;;;;;;;5.80;0.52;;;;;;;7.96;100.00;97764.22;5030083;22;1103249;-64
2024/01/04 07:51:29;;;;;;;3.65;0.50;;;;;;;7.94;100.00;97772.53;5066991;28;20024;-64
2024/01/04 07:53:54;;;;;;;5.13;0.68;;;;;;;7.99;100.00;97767.31;5073416;28;20037;-64
2024/01/04 07:56:20;;;;;;;3.42;0.70;;;;;;;7.93;100.00;97773.53;5078927;28;20028;-63
2024/01/04 07:58:45;;;;;;;5.05;0.57;;;;;;;7.95;100.00;97774.16;5076776;28;20032;-64
2024/01/04 08:01:11;;;;;;;8.30;0.85;;;;;;;8.03;100.00;97784.69;5082295;28;20021;-64
2024/01/04 08:03:36;;;;;;;5.63;0.75;;;;;;;7.95;100.00;97786.81;5088141;28;20079;-64
2024/01/04 08:06:02;;;;;;;4.15;0.50;;;;;;;8.04;100.00;97801.69;5086816;28;20024;-63
2024/01/04 08:08:27;;;;;;;4.13;0.70;;;;;;;8.06;100.00;97791.53;5074030;28;20047;-64
2024/01/04 08:10:54;;;;;;;3.28;0.85;;;;;;;8.12;100.00;97794.22;5079763;28;20050;-64
2024/01/04 08:13:19;;;;;;;4.07;0.88;;;;;;;8.13;100.00;97782.38;5076487;28;20031;-64
2024/01/04 08:15:45;;;;;;;2.72;0.88;;;;;;;8.19;100.00;97787.97;5079292;28;20036;-61
2024/01/04 08:18:10;;;;;;;6.20;0.85;;;;;;;8.22;100.00;97792.91;5085217;28;20029;-64
2024/01/04 08:20:35;;;;;;;4.68;1.25;;;;;;;8.23;100.00;97770.34;5080965;28;20038;-64
2024/01/04 08:23:00;;;;;;;7.60;1.02;;;;;;;8.32;100.00;97785.22;5078222;28;20035;-64
2024/01/04 08:25:27;;;;;;;7.03;0.68;;;;;;;8.31;100.00;97780.88;5078165;28;20051;-64
2024/01/04 08:27:53;;;;;;;6.03;1.33;;;;;;;8.36;100.00;97789.16;5081699;28;20577;-64
2024/01/04 08:30:19;;;;;;;4.50;0.98;;;;;;;8.43;100.00;97781.88;5081912;28;20040;-63
2024/01/04 08:32:44;;;;;;;4.70;0.77;;;;;;;8.45;100.00;97787.06;5081438;28;20138;-63
2024/01/04 08:35:10;;;;;;;9.90;1.05;;;;;;;8.56;100.00;97792.59;5076038;28;20377;-61
2024/01/04 08:37:35;;;;;;;9.27;1.25;;;;;;;8.77;100.00;97788.72;5075250;28;20028;-61
2024/01/04 08:40:00;;;;;;;6.38;0.60;;;;;;;8.92;100.00;97787.63;5080134;28;20112;-62
2024/01/04 08:42:26;;;;;;;6.47;0.70;;;;;;;9.10;100.00;97765.28;5078073;28;20028;-61
2024/01/04 08:44:51;;;;;;;3.80;0.60;;;;;;;9.42;100.00;97793.88;5076454;28;20070;-62
2024/01/04 08:47:17;;;;;;;3.85;0.63;;;;;;;9.37;100.00;97785.59;5074108;28;20478;-64
2024/01/04 08:49:42;;;;;;;7.22;1.08;;;;;;;9.10;100.00;97789.59;5075181;28;20036;-61
2024/01/04 08:52:07;;;;;;;3.85;0.75;;;;;;;8.91;100.00;97799.47;5081390;28;20107;-61
2024/01/04 08:54:33;;;;;;;8.45;0.77;;;;;;;8.94;100.00;97802.53;5077920;28;20108;-61
2024/01/04 08:56:58;;;;;;;6.18;0.63;;;;;;;8.96;100.00;97800.47;5081433;28;20379;-68
2024/01/04 08:59:23;;;;;;;9.93;0.93;;;;;;;8.98;100.00;97814.53;5084323;28;20542;-61
2024/01/04 09:01:49;;;;;;;4.68;0.82;;;;;;;9.24;100.00;97815.41;5070538;28;20392;-67
2024/01/04 09:04:15;;;;;;;3.58;0.50;;;;;;;9.19;100.00;97824.16;5083178;28;20021;-60
2024/01/04 09:06:40;;;;;;;6.20;0.90;;;;;;;9.44;100.00;97816.09;5077492;28;20107;-60
2024/01/04 09:09:07;;;;;;;4.97;0.80;;;;;;;9.52;100.00;97806.06;5067677;28;20051;-60
2024/01/04 09:11:38;;;;;;;3.08;0.88;;;;;;;9.66;100.00;97816.50;5077677;28;20082;-61
2024/01/04 09:14:07;;;;;;;6.97;0.95;;;;;;;10.21;100.00;97818.44;5081617;28;20020;-61
2024/01/04 09:16:36;;;;;;;12.65;1.10;;;;;;;11.01;100.00;97822.88;5081636;28;20024;-60
2024/01/04 09:19:01;;;;;;;3.25;0.70;;;;;;;11.85;100.00;97806.53;5067596;28;20020;-60
2024/01/04 09:21:27;;;;;;;10.02;1.10;;;;;;;11.72;100.00;97826.56;5079894;28;20058;-60
2024/01/04 09:23:52;;;;;;;4.28;0.77;;;;;;;10.75;100.00;97832.19;5090619;28;20482;-60
2024/01/04 09:26:18;;;;;;;8.52;0.82;;;;;;;10.70;100.00;97824.75;5062088;28;20035;-60
2024/01/04 09:28:43;;;;;;;5.22;0.60;;;;;;;10.63;100.00;97824.00;5076986;28;20096;-60
2024/01/04 09:31:09;;;;;;;5.85;0.85;;;;;;;10.87;100.00;97824.13;5058024;28;20027;-63
2024/01/04 09:33:34;;;;;;;5.75;0.65;;;;;;;11.09;100.00;97846.91;5079357;28;20025;-63
2024/01/04 09:36:00;;;;;;;3.47;0.50;;;;;;;11.21;100.00;97844.25;5080549;28;20099;-63
2024/01/04 09:38:27;;;;;;;4.57;0.85;;;;;;;10.79;100.00;97829.84;5081382;28;20046;-60
2024/01/04 09:41:03;;;;;;;3.08;0.50;;;;;;;11.54;100.00;97843.72;5078727;28;20028;-66
2024/01/04 09:43:31;;;;;;;12.07;1.25;;;;;;;12.20;100.00;97871.59;5060604;28;20024;-60
2024/01/04 09:46:00;;;;;;;4.17;0.57;;;;;;;11.53;100.00;97823.13;5085452;28;20039;-60
2024/01/04 09:48:29;;;;;;;3.17;0.40;;;;;;;10.86;100.00;97849.53;5174913;22;20057;-54
2024/01/04 09:50:55;;;;;;;5.97;0.85;;;;;;;10.23;100.00;97870.41;5075057;28;20107;-54
2024/01/04 09:53:20;;;;;;;6.95;1.08;;;;;;;10.34;100.00;97865.34;5076191;28;20115;-54
2024/01/04 09:55:47;;;;;;;7.40;0.77;;;;;;;10.22;100.00;97871.47;5089368;28;20062;-54
2024/01/04 09:58:14;;;;;;;4.40;0.50;;;;;;;9.81;100.00;97872.91;5094021;28;20097;-53
2024/01/04 10:00:39;;;;;;;3.17;0.80;;;;;;;9.80;100.00;97878.53;5088534;28;20024;-55
2024/01/04 10:03:07;;;;;;;6.40;1.10;;;;;;;9.83;100.00;97876.22;5089361;28;20429;-54
2024/01/04 10:05:34;;;;;;;3.70;0.60;;;;;;;9.62;100.00;97868.50;5087305;28;20028;-55
2024/01/04 10:08:19;;;;;;;4.25;0.50;;;;;;;10.03;100.00;97876.03;5092554;28;20077;-55
2024/01/04 10:10:44;;;;;;;7.93;0.68;;;;;;;10.03;100.00;97876.03;5074721;28;20039;-54
2024/01/04 10:13:11;;;;;;;7.07;1.05;;;;;;;10.16;100.00;97877.75;5092498;28;20035;-54
2024/01/04 10:15:39;;;;;;;5.25;1.23;;;;;;;9.84;100.00;97885.97;5087625;28;20032;-54
2024/01/04 10:18:09;;;;;;;4.22;0.73;;;;;;;9.34;100.00;97898.59;5091993;28;20442;-55
2024/01/04 10:20:34;;;;;;;6.45;0.73;;;;;;;9.49;100.00;97887.50;5090349;28;20026;-54
2024/01/04 10:22:59;;;;;;;3.40;0.60;;;;;;;9.56;100.00;97889.13;5086330;28;20020;-54
2024/01/04 10:25:25;;;;;;;5.40;1.00;;;;;;;9.30;100.00;97905.47;5091267;28;20473;-54
2024/01/04 10:27:55;;;;;;;5.05;0.75;;;;;;;9.42;100.00;97901.03;5092109;28;20387;-54
2024/01/04 10:30:20;;;;;;;6.28;0.70;;;;;;;9.50;100.00;97911.56;5089421;28;20019;-54
2024/01/04 10:32:50;;;;;;;6.95;0.98;;;;;;;9.55;100.00;97916.31;5092393;28;20446;-54
2024/01/04 10:35:15;;;;;;;6.53;0.80;;;;;;;9.16;100.00;97916.34;5085269;28;20481;-55
2024/01/04 10:37:41;;;;;;;8.73;1.25;;;;;;;9.54;100.00;97926.31;5093845;28;20036;-54
2024/01/04 10:40:09;;;;;;;5.80;0.60;;;;;;;9.74;100.00;97930.72;5091409;28;20406;-54
2024/01/04 10:43:04;;;;;;;5.00;0.75;;;;;;;10.44;100.00;97919.75;5089029;28;20718;-54
2024/01/04 10:45:30;;;;;;;2.75;0.45;;;;;;;11.76;100.00;97909.06;5087636;28;20020;-54
2024/01/04 10:47:56;;;;;;;10.43;0.77;;;;;;;12.97;100.00;97922.13;5089381;28;20463;-54
2024/01/04 10:50:25;;;;;;;6.35;1.02;;;;;;;11.98;100.00;97919.34;5089851;28;20418;-54
2024/01/04 10:52:55;;;;;;;5.72;0.80;;;;;;;11.82;100.00;97932.50;5092304;28;20767;-54
2024/01/04 10:55:20;;;;;;;4.47;0.80;;;;;;;11.37;100.00;97924.00;5089510;28;20028;-54
2024/01/04 10:57:48;;;;;;;8.65;1.10;;;;;;;13.41;100.00;97922.44;5092353;28;20035;-54
2024/01/04 11:00:16;;;;;;;6.30;0.80;;;;;;;15.44;92.39;97923.00;5083144;28;20027;-54
2024/01/04 11:02:43;;;;;;;3.88;0.77;;;;;;;16.57;84.37;97924.78;5086873;28;20475;-54
2024/01/04 11:05:11;;;;;;;8.38;1.27;;;;;;;16.38;78.30;97920.84;5069145;28;20473;-54
2024/01/04 11:07:40;;;;;;;5.43;1.05;;;;;;;17.67;76.60;97915.66;5066848;28;20024;-54
2024/01/04 11:10:06;;;;;;;3.72;0.70;;;;;;;17.95;74.11;97932.72;5088837;28;20071;-54
2024/01/04 11:12:32;;;;;;;4.97;0.95;;;;;;;18.11;71.62;97923.41;5097368;28;20028;-53
2024/01/04 11:14:58;;;;;;;4.18;0.60;;;;;;;15.66;72.51;97931.09;5083599;28;20072;-53
2024/01/04 11:17:56;;;;;;;4.80;1.00;;;;;;;17.69;70.42;97921.69;5084656;28;20032;-53
2024/01/04 11:21:07;;;;;;;2.28;0.60;;;;;;;16.81;74.44;97925.22;5086655;28;20398;-53
2024/01/04 11:23:47;;;;;;;2.45;0.52;;;;;;;17.83;70.58;97921.19;5055247;28;20115;-53
2024/01/04 11:26:25;;;;;;;4.93;0.65;;;;;;;15.88;72.66;97938.47;5086343;28;20020;-53
2024/01/04 11:28:52;;;;;;;2.78;0.43;;;;;;;15.23;76.00;97932.84;5083914;28;20028;-54
2024/01/04 11:31:17;;;;;;;6.15;0.70;;;;;;;16.87;74.37;97934.25;5089616;28;20024;-53
2024/01/04 11:33:43;;;;;;;5.10;0.88;;;;;;;16.52;72.81;97932.13;5088064;28;20089;-54
2024/01/04 11:36:09;;;;;;;2.95;0.57;;;;;;;16.48;72.96;97922.81;5081726;28;20055;-53
2024/01/04 11:38:35;;;;;;;3.35;0.40;;;;;;;16.76;72.07;97916.97;5091514;28;20024;-53
2024/01/04 11:41:01;;;;;;;1.67;0.50;;;;;;;18.31;68.57;97905.31;5092375;28;20028;-54
2024/01/04 11:43:38;;;;;;;3.22;0.68;;;;;;;16.00;70.91;97903.63;5091696;28;20049;-53
2024/01/04 11:46:24;;;;;;;2.08;0.50;;;;;;;15.15;76.59;97900.59;5090911;28;20024;-54
2024/01/04 11:48:53;;;;;;;5.60;1.05;;;;;;;14.45;79.48;97899.41;5089188;28;20039;-54
2024/01/04 11:51:39;;;;;;;2.72;0.57;;;;;;;14.51;89.91;97914.72;5093221;28;20020;-53
2024/01/04 11:54:05;;;;;;;1.85;0.43;;;;;;;15.91;84.63;97889.66;5088074;28;20574;-53
2024/01/04 11:56:31;;;;;;;2.92;0.70;;;;;;;15.66;80.45;97889.38;5092496;28;20467;-53
2024/01/04 11:59:09;;;;;;;2.60;0.52;;;;;;;16.16;76.32;97893.66;5089027;28;20082;-53
2024/01/04 12:01:39;;;;;;;2.58;0.50;;;;;;;15.87;77.06;97882.25;5090387;28;20105;-53
2024/01/04 12:04:12;;;;;;;8.88;0.70;;;;;;;14.07;82.60;97881.13;5077554;28;20020;-53
2024/01/04 12:06:39;;;;;;;2.30;0.60;;;;;;;13.97;100.00;97898.13;5095958;28;20111;-53